Time;durP1;ratioP1;P1;durP2;ratioP2;P2;SDS_P1;SDS_P2;PMS_P1;PMS_P2;Temp;Humidity;BMP_temperature;BMP_pressure;BME280_temperature;BME280_humidity;BME280_pressure;Samples;Min_cycle;Max_cycle;Signal;HPM_P1;HPM_P2
2023/03/12 00:01:28;;;;;;;11.40;6.10;;;;;;;-2.15;83.91;99430.44;102669;277;114568;-56
2023/03/12 00:04:07;;;;;;;11.20;6.70;;;;;;;-2.18;83.94;99433.35;102675;277;94746;-54
2023/03/12 00:06:42;;;;;;;11.70;6.20;;;;;;;-2.19;84.01;99435.20;102720;277;97481;-55
2023/03/12 00:09:23;;;;;;;10.80;6.30;;;;;;;-2.21;84.08;99432.23;102698;277;120254;-55
2023/03/12 00:12:00;;;;;;;8.40;5.80;;;;;;;-2.22;84.18;99430.34;102684;277;105506;-55
2023/03/12 00:14:43;;;;;;;12.30;6.70;;;;;;;-2.24;84.28;99433.35;102690;277;114509;-57
2023/03/12 00:17:18;;;;;;;;;;;;;;;-2.24;84.37;99433.17;102653;277;95734;-57
2023/03/12 00:19:56;;;;;;;13.30;6.30;;;;;;;-2.23;84.50;99429.23;102704;277;95611;-59
2023/03/12 00:22:36;;;;;;;9.10;6.40;;;;;;;-2.22;84.58;99424.85;102708;277;120691;-60
2023/03/12 00:25:16;;;;;;;11.30;6.40;;;;;;;-2.22;84.63;99421.52;102710;277;105251;-61
2023/03/12 00:27:55;;;;;;;10.20;6.30;;;;;;;-2.22;84.67;99418.70;102734;277;114926;-57
2023/03/12 00:30:34;;;;;;;13.00;7.00;;;;;;;-2.23;84.79;99417.27;102688;277;94130;-61
2023/03/12 00:33:11;;;;;;;12.30;6.80;;;;;;;-2.19;84.90;99415.13;102712;277;97403;-55
2023/03/12 00:35:55;;;;;;;11.90;7.00;;;;;;;-2.20;84.90;99412.42;102704;277;120543;-55
2023/03/12 00:38:29;;;;;;;11.70;7.50;;;;;;;-2.23;84.98;99407.51;102692;277;106183;-58
2023/03/12 00:41:13;;;;;;;12.10;7.50;;;;;;;-2.26;84.97;99400.37;102619;277;114956;-59
2023/03/12 00:43:48;;;;;;;15.70;8.30;;;;;;;-2.26;85.11;99405.70;102657;277;95499;-55
2023/03/12 00:46:25;;;;;;;12.40;8.10;;;;;;;-2.28;85.23;99401.42;102708;277;98135;-56
2023/03/12 00:49:08;;;;;;;15.10;8.40;;;;;;;-2.26;85.27;99407.27;102695;277;120015;-58
2023/03/12 00:51:46;;;;;;;14.80;8.10;;;;;;;-2.28;85.36;99401.51;102690;277;105937;-57
2023/03/12 00:54:25;;;;;;;12.90;8.60;;;;;;;-2.30;85.42;99403.02;102642;277;113210;-55
2023/03/12 00:57:04;;;;;;;15.70;9.30;;;;;;;-2.26;85.64;99405.35;102689;277;96017;-54
2023/03/12 00:59:41;;;;;;;14.70;8.50;;;;;;;-2.22;85.74;99400.24;102710;277;98018;-59
2023/03/12 01:02:18;;;;;;;14.90;9.30;;;;;;;-2.10;85.90;99397.38;102687;277;119228;-58
2023/03/12 01:04:58;;;;;;;15.20;10.10;;;;;;;-1.95;86.23;99393.38;102703;277;105461;-57
2023/03/12 01:07:37;;;;;;;14.70;8.80;;;;;;;-1.77;86.31;99386.55;102640;277;114151;-57
2023/03/12 01:10:16;;;;;;;16.50;9.60;;;;;;;-1.70;86.31;99389.45;102654;277;95745;-59
2023/03/12 01:12:54;;;;;;;15.40;9.60;;;;;;;-1.61;86.29;99386.09;102709;277;98163;-57
2023/03/12 01:15:32;;;;;;;16.40;9.40;;;;;;;-1.54;86.39;99386.19;102688;277;119388;-61
2023/03/12 01:18:06;;;;;;;;;;;;;;;-1.41;86.49;99383.77;102694;277;105019;-57
2023/03/12 01:20:40;;;;;;;11.70;8.00;;;;;;;-1.33;86.39;99382.88;102638;277;112927;-57
2023/03/12 01:23:17;;;;;;;14.70;9.70;;;;;;;-1.27;86.37;99380.35;102704;277;96023;-62
2023/03/12 01:25:54;;;;;;;16.30;10.40;;;;;;;-1.27;86.35;99375.22;102726;277;98414;-62
2023/03/12 01:28:30;;;;;;;16.10;10.20;;;;;;;-1.27;86.41;99368.70;102673;277;119901;-62
2023/03/12 01:31:14;;;;;;;16.20;10.60;;;;;;;-1.23;86.41;99368.10;102708;277;106427;-61
2023/03/12 01:33:54;;;;;;;15.00;9.90;;;;;;;-1.16;86.44;99372.64;102646;277;114919;-57
2023/03/12 01:36:30;;;;;;;14.50;10.60;;;;;;;-1.10;86.44;99368.45;102649;277;94610;-57
2023/03/12 01:39:07;;;;;;;15.20;10.10;;;;;;;-1.01;86.46;99354.64;102681;277;97161;-57
2023/03/12 01:41:50;;;;;;;16.90;10.80;;;;;;;-0.93;86.45;99351.75;102484;279;118776;-58
2023/03/12 01:44:25;;;;;;;18.30;10.50;;;;;;;-0.89;86.31;99348.02;102640;277;104750;-59
2023/03/12 01:47:06;;;;;;;17.00;10.20;;;;;;;-0.90;86.28;99347.40;102629;277;114689;-59
2023/03/12 01:49:48;;;;;;;17.20;10.80;;;;;;;-0.89;86.21;99349.77;102600;277;95026;-60
2023/03/12 01:52:27;;;;;;;15.40;10.30;;;;;;;-0.89;86.18;99351.34;102644;277;97608;-61
2023/03/12 01:55:08;;;;;;;15.40;9.60;;;;;;;-0.85;86.21;99349.98;102641;277;121274;-59
2023/03/12 01:57:52;;;;;;;16.90;10.40;;;;;;;-0.83;86.22;99349.59;102623;277;105181;-59
2023/03/12 02:00:35;;;;;;;16.50;9.80;;;;;;;-0.77;86.26;99345.30;102596;266;114040;-56
2023/03/12 02:03:17;;;;;;;14.30;10.20;;;;;;;-0.72;86.21;99346.77;102598;277;94126;-59
2023/03/12 02:06:03;;;;;;;14.80;9.30;;;;;;;-0.69;86.16;99351.75;102656;277;98246;-58
2023/03/12 02:08:49;;;;;;;15.20;9.30;;;;;;;-0.66;86.22;99356.77;102582;277;119830;-57
2023/03/12 02:11:29;;;;;;;17.60;10.40;;;;;;;-0.62;86.18;99349.47;102575;277;104137;-58
2023/03/12 02:14:07;;;;;;;15.20;10.10;;;;;;;-0.57;86.14;99355.48;102614;277;115158;-58
2023/03/12 02:16:45;;;;;;;14.90;9.90;;;;;;;-0.55;86.01;99355.65;102577;277;96107;-59
2023/03/12 02:19:33;;;;;;;16.40;9.40;;;;;;;-0.60;85.91;99357.42;102579;277;96811;-56
2023/03/12 02:22:08;;;;;;;13.70;9.70;;;;;;;-0.64;85.96;99353.38;102612;277;120066;-56
2023/03/12 02:24:49;;;;;;;15.60;9.60;;;;;;;-0.68;85.89;99359.68;102644;266;104899;-56
2023/03/12 02:27:29;;;;;;;15.60;8.90;;;;;;;-0.72;85.91;99366.36;102607;277;114797;-55
2023/03/12 02:30:14;;;;;;;14.90;9.10;;;;;;;-0.75;86.06;99364.36;102592;277;95851;-59
2023/03/12 02:33:02;;;;;;;16.40;9.20;;;;;;;-0.80;85.86;99369.81;102596;266;97693;-60
2023/03/12 02:35:38;;;;;;;16.20;9.10;;;;;;;-0.88;85.94;99365.77;102605;277;119557;-56
2023/03/12 02:38:55;;;;;;;16.60;8.90;;;;;;;-0.89;86.04;99364.24;102587;277;105873;-57
2023/03/12 02:41:39;;;;;;;16.10;9.80;;;;;;;-0.93;85.90;99368.02;102273;277;114743;-59
2023/03/12 02:44:24;;;;;;;14.10;8.60;;;;;;;-0.97;86.05;99366.21;102578;277;94754;-59
2023/03/12 02:47:02;;;;;;;11.80;7.30;;;;;;;-0.96;86.14;99369.84;102590;277;98001;-58
2023/03/12 02:49:42;;;;;;;12.30;7.50;;;;;;;-0.94;86.22;99367.60;102644;277;120103;-59
2023/03/12 02:52:20;;;;;;;12.60;8.10;;;;;;;-0.86;86.41;99365.92;102598;265;105543;-59
2023/03/12 02:54:58;;;;;;;12.40;8.50;;;;;;;-0.74;86.49;99357.77;102596;277;114626;-59
2023/03/12 02:57:39;;;;;;;13.30;8.10;;;;;;;-0.70;86.42;99368.14;102577;277;95777;-59
2023/03/12 03:00:18;;;;;;;13.10;8.10;;;;;;;-0.65;86.44;99375.38;102651;277;97711;-57
2023/03/12 03:02:54;;;;;;;14.70;9.20;;;;;;;-0.58;86.43;99368.98;102645;277;120384;-56
2023/03/12 03:05:31;;;;;;;12.60;6.80;;;;;;;-0.54;86.41;99372.26;102587;277;105730;-56
2023/03/12 03:08:07;;;;;;;12.00;7.20;;;;;;;-0.48;86.38;99369.76;102636;277;114502;-56
2023/03/12 03:10:46;;;;;;;12.20;7.40;;;;;;;-0.46;86.35;99371.85;102598;277;95203;-56
2023/03/12 03:13:25;;;;;;;12.80;6.80;;;;;;;-0.49;86.23;99374.62;102628;277;97467;-58
2023/03/12 03:16:02;;;;;;;11.80;7.00;;;;;;;-0.52;86.21;99384.11;102491;277;119899;-59
2023/03/12 03:18:41;;;;;;;12.90;7.50;;;;;;;-0.49;86.23;99384.73;102639;278;105418;-60
2023/03/12 03:21:19;;;;;;;11.50;7.50;;;;;;;-0.44;86.21;99388.53;102572;278;114655;-59
2023/03/12 03:23:58;;;;;;;15.50;7.80;;;;;;;-0.41;86.14;99392.04;102635;278;95633;-59
2023/03/12 03:26:35;;;;;;;10.60;6.90;;;;;;;-0.38;86.12;99402.42;102563;278;97651;-59
2023/03/12 03:29:16;;;;;;;10.50;6.50;;;;;;;-0.34;86.06;99401.34;102597;278;119721;-57
2023/03/12 03:31:52;;;;;;;14.00;7.50;;;;;;;-0.31;86.09;99406.34;102594;278;105219;-58
2023/03/12 03:34:28;;;;;;;12.20;7.10;;;;;;;-0.28;86.17;99404.30;102686;278;114757;-58
2023/03/12 03:37:03;;;;;;;10.40;7.00;;;;;;;-0.23;86.10;99412.51;102588;278;95511;-57
2023/03/12 03:39:37;;;;;;;10.70;7.60;;;;;;;-0.20;85.99;99411.44;102626;278;97686;-55
2023/03/12 03:42:16;;;;;;;13.80;7.60;;;;;;;-0.15;86.00;99410.30;102624;278;120076;-56
2023/03/12 03:44:53;;;;;;;11.90;6.70;;;;;;;-0.09;85.91;99410.91;102504;279;104562;-55
2023/03/12 03:47:30;;;;;;;12.80;7.30;;;;;;;-0.04;85.90;99411.37;102580;278;114406;-55
2023/03/12 03:50:08;;;;;;;9.50;7.10;;;;;;;-0.04;85.75;99413.61;102607;278;93890;-56
2023/03/12 03:52:44;;;;;;;10.20;6.40;;;;;;;-0.02;85.71;99418.02;102600;278;97127;-56
2023/03/12 03:55:20;;;;;;;9.40;7.10;;;;;;;-0.02;85.58;99421.92;102586;278;118881;-59
2023/03/12 03:58:00;;;;;;;11.90;7.00;;;;;;;-0.02;85.52;99417.34;102627;278;105085;-61
2023/03/12 04:00:38;;;;;;;11.20;6.70;;;;;;;-0.01;85.35;99420.75;102606;278;114350;-63
2023/03/12 04:03:21;;;;;;;11.20;6.90;;;;;;;0.00;85.31;99426.17;102692;278;95221;-58
2023/03/12 04:06:06;;;;;;;11.50;6.90;;;;;;;0.00;85.30;99429.48;102609;278;97735;-58
2023/03/12 04:08:40;;;;;;;13.80;7.10;;;;;;;0.01;85.30;99430.13;102587;278;119202;-54
2023/03/12 04:11:16;;;;;;;10.70;6.20;;;;;;;0.03;85.23;99431.54;102590;278;105164;-56
2023/03/12 04:13:57;;;;;;;9.80;5.90;;;;;;;0.06;85.18;99434.41;102602;278;114190;-59
2023/03/12 04:16:34;;;;;;;8.70;6.40;;;;;;;0.11;85.19;99439.09;102611;278;93620;-60
2023/03/12 04:19:10;;;;;;;11.00;6.30;;;;;;;0.16;85.16;99441.86;102666;278;98369;-61
2023/03/12 04:21:50;;;;;;;11.00;5.50;;;;;;;0.16;85.10;99437.55;102674;278;119981;-61
2023/03/12 04:24:33;;;;;;;8.90;6.00;;;;;;;0.15;85.08;99436.48;102618;278;103921;-56
2023/03/12 04:27:14;;;;;;;9.60;6.00;;;;;;;0.16;84.99;99438.30;102595;278;114845;-56
2023/03/12 04:29:57;;;;;;;9.30;5.80;;;;;;;0.14;84.99;99439.21;102613;278;95862;-59
2023/03/12 04:32:39;;;;;;;8.10;5.10;;;;;;;0.13;84.99;99436.48;102544;278;96563;-58
2023/03/12 04:35:26;;;;;;;11.00;5.90;;;;;;;0.13;84.91;99435.22;102562;278;118520;-55
2023/03/12 04:38:09;;;;;;;9.60;5.30;;;;;;;0.14;84.91;99433.64;102525;275;104488;-57
2023/03/12 04:40:45;;;;;;;9.20;5.60;;;;;;;0.16;84.93;99436.85;102586;278;115217;-55
2023/03/12 04:43:26;;;;;;;7.70;5.20;;;;;;;0.20;84.92;99432.25;102609;277;92141;-61
2023/03/12 04:46:10;;;;;;;15.80;6.00;;;;;;;0.25;84.71;99429.56;102690;277;96236;-61
2023/03/12 04:48:45;;;;;;;10.30;5.50;;;;;;;0.27;84.78;99429.72;102630;278;119873;-55
2023/03/12 04:51:27;;;;;;;8.20;5.50;;;;;;;0.26;84.71;99429.64;102646;278;104195;-55
2023/03/12 04:54:03;;;;;;;8.90;5.60;;;;;;;0.23;84.70;99432.80;102571;278;114994;-57
2023/03/12 04:56:40;;;;;;;9.40;5.90;;;;;;;0.21;84.81;99429.84;102609;278;95706;-57
2023/03/12 04:59:25;;;;;;;9.40;5.60;;;;;;;0.20;84.77;99433.81;102632;278;97992;-56
2023/03/12 05:02:04;;;;;;;10.40;5.50;;;;;;;0.24;84.73;99437.83;102555;278;119810;-55
2023/03/12 05:04:39;;;;;;;8.00;4.80;;;;;;;0.27;84.83;99436.10;102558;278;106008;-55
2023/03/12 05:07:16;;;;;;;11.00;5.60;;;;;;;0.30;84.81;99435.47;102525;277;113659;-55
2023/03/12 05:09:54;;;;;;;12.30;5.90;;;;;;;0.32;84.87;99439.90;102553;278;92421;-56
2023/03/12 05:12:38;;;;;;;6.70;4.90;;;;;;;0.36;84.94;99442.67;102529;278;97022;-55
2023/03/12 05:15:21;;;;;;;;;;;;;;;0.36;84.95;99438.98;102587;278;118499;-58
2023/03/12 05:17:59;;;;;;;8.40;5.40;;;;;;;0.35;84.93;99438.35;102571;278;105628;-61
2023/03/12 05:20:36;;;;;;;9.20;5.00;;;;;;;0.35;84.83;99436.02;102612;278;113449;-61
2023/03/12 05:23:16;;;;;;;10.80;5.30;;;;;;;0.33;84.84;99439.02;102602;278;96066;-61
2023/03/12 05:25:55;;;;;;;10.30;6.50;;;;;;;0.32;84.93;99442.86;102651;278;97889;-62
2023/03/12 05:28:31;;;;;;;11.70;6.30;;;;;;;0.38;84.87;99443.39;102604;278;119732;-58
2023/03/12 05:31:16;;;;;;;8.30;5.10;;;;;;;0.40;84.85;99446.73;102556;278;104493;-59
2023/03/12 05:33:52;;;;;;;;;;;;;;;0.44;84.88;99451.11;102610;278;114275;-62
2023/03/12 05:36:29;;;;;;;8.60;5.60;;;;;;;0.48;84.95;99456.36;102566;277;93872;-62
2023/03/12 05:39:08;;;;;;;10.80;5.70;;;;;;;0.54;84.93;99456.30;102565;278;97911;-56
2023/03/12 05:41:47;;;;;;;8.70;5.20;;;;;;;0.58;84.97;99458.44;102555;278;118499;-55
2023/03/12 05:44:29;;;;;;;10.70;5.20;;;;;;;0.57;85.01;99461.09;102622;278;105994;-60
2023/03/12 05:47:06;;;;;;;7.30;5.00;;;;;;;0.57;84.93;99458.88;102670;278;113701;-61
2023/03/12 05:49:43;;;;;;;11.40;5.00;;;;;;;0.60;84.81;99457.33;102717;278;96291;-62
2023/03/12 05:52:23;;;;;;;7.00;5.00;;;;;;;0.59;84.77;99461.61;102647;278;96883;-60
2023/03/12 05:55:04;;;;;;;8.80;5.00;;;;;;;0.58;84.72;99466.48;102553;278;119439;-57
2023/03/12 05:57:44;;;;;;;10.00;5.10;;;;;;;0.63;84.78;99470.72;102568;277;105401;-58
2023/03/12 06:00:20;;;;;;;9.50;6.10;;;;;;;0.68;84.73;99478.38;102636;277;114009;-62
2023/03/12 06:02:58;;;;;;;10.60;6.00;;;;;;;0.72;84.73;99480.59;102694;278;92182;-57
2023/03/12 06:05:35;;;;;;;11.00;5.90;;;;;;;0.79;84.66;99485.27;102523;278;98105;-57
2023/03/12 06:08:09;;;;;;;9.50;5.70;;;;;;;0.81;84.54;99491.27;102558;277;118380;-59
2023/03/12 06:10:53;;;;;;;6.40;4.40;;;;;;;0.80;84.41;99493.77;102567;277;105843;-58
2023/03/12 06:13:27;;;;;;;;;;;;;;;0.80;84.25;99494.53;102554;277;115484;-61
2023/03/12 06:16:12;;;;;;;7.40;4.40;;;;;;;0.77;84.22;99500.15;102576;278;95417;-61
2023/03/12 06:18:49;;;;;;;8.00;4.70;;;;;;;0.77;84.21;99499.77;102623;277;97709;-58
2023/03/12 06:21:25;;;;;;;8.80;4.80;;;;;;;0.83;84.16;99493.00;102525;278;119828;-57
2023/03/12 06:24:01;;;;;;;7.20;4.30;;;;;;;1.00;84.22;99487.90;102610;278;105887;-57
2023/03/12 06:26:39;;;;;;;7.80;3.90;;;;;;;1.26;84.28;99488.34;102507;277;112690;-57
2023/03/12 06:29:17;;;;;;;6.70;3.60;;;;;;;1.53;84.01;99502.59;102512;277;92476;-55
2023/03/12 06:31:55;;;;;;;8.40;3.90;;;;;;;1.66;83.65;99505.41;102552;278;97491;-56
2023/03/12 06:34:35;;;;;;;6.10;3.70;;;;;;;1.65;83.54;99505.48;102562;277;120092;-60
2023/03/12 06:37:15;;;;;;;6.80;3.60;;;;;;;1.64;83.08;99511.06;102496;277;106090;-59
2023/03/12 06:39:54;;;;;;;5.50;3.90;;;;;;;1.52;82.86;99515.98;102557;278;114200;-62
2023/03/12 06:42:27;;;;;;;8.70;3.40;;;;;;;1.42;82.47;99530.89;102596;277;94696;-62
2023/03/12 06:45:03;;;;;;;5.60;3.40;;;;;;;1.32;82.50;99526.40;102629;278;96990;-55
2023/03/12 06:47:45;;;;;;;6.70;3.30;;;;;;;1.31;82.54;99534.71;102591;278;117721;-56
2023/03/12 06:50:25;;;;;;;7.40;3.60;;;;;;;1.36;82.39;99525.42;102621;278;103083;-58
2023/03/12 06:53:00;;;;;;;4.90;3.10;;;;;;;1.44;82.39;99531.57;102559;278;114116;-59
2023/03/12 06:55:43;;;;;;;4.30;2.90;;;;;;;1.48;82.22;99534.54;102590;278;93770;-59
2023/03/12 06:58:27;;;;;;;6.20;3.00;;;;;;;1.43;82.12;99543.77;102636;278;97561;-62
2023/03/12 07:01:08;;;;;;;6.20;3.10;;;;;;;1.46;82.09;99549.42;102695;278;119758;-62
2023/03/12 07:03:43;;;;;;;4.90;2.90;;;;;;;1.65;82.04;99548.73;102708;278;105651;-56
2023/03/12 07:06:20;;;;;;;;;;;;;;;1.85;81.94;99546.06;102629;278;114115;-55
2023/03/12 07:08:54;;;;;;;5.60;3.20;;;;;;;2.21;81.91;99539.15;102628;278;95793;-56
2023/03/12 07:11:31;;;;;;;7.20;3.10;;;;;;;2.31;81.14;99549.45;102623;278;98763;-55
2023/03/12 07:14:11;;;;;;;4.70;2.90;;;;;;;2.53;81.55;99553.16;102668;278;118397;-66
2023/03/12 07:16:52;;;;;;;5.80;3.20;;;;;;;3.47;81.93;99550.64;102658;278;105656;-62
2023/03/12 07:19:30;;;;;;;4.90;2.90;;;;;;;4.98;81.47;99545.92;102584;278;114292;-59
2023/03/12 07:22:05;;;;;;;5.00;2.70;;;;;;;4.90;79.97;99547.05;102683;278;92020;-60
2023/03/12 07:24:48;;;;;;;4.80;2.70;;;;;;;4.51;79.05;99552.63;102597;278;97072;-56
2023/03/12 07:27:27;;;;;;;4.70;2.70;;;;;;;5.17;77.20;99549.31;102586;278;122499;-56
2023/03/12 07:30:09;;;;;;;4.20;2.70;;;;;;;5.83;77.11;99550.29;102627;278;105353;-58
2023/03/12 07:32:48;;;;;;;10.30;3.40;;;;;;;6.92;75.75;99549.79;102580;278;115345;-58
2023/03/12 07:35:36;;;;;;;4.30;2.20;;;;;;;7.81;75.41;99551.42;102138;278;602747;-60
2023/03/12 07:38:12;;;;;;;4.40;2.40;;;;;;;7.78;73.88;99554.55;102593;278;98020;-62
2023/03/12 07:40:52;;;;;;;4.20;2.20;;;;;;;8.43;73.64;99559.25;102615;278;120704;-62
2023/03/12 07:43:34;;;;;;;4.90;2.30;;;;;;;8.29;72.71;99568.84;102618;278;104676;-59
2023/03/12 07:46:18;;;;;;;6.30;2.30;;;;;;;8.31;72.30;99570.15;102596;278;114151;-60
2023/03/12 07:48:55;;;;;;;5.30;2.30;;;;;;;7.64;71.76;99574.00;102632;278;95232;-60
2023/03/12 07:51:43;;;;;;;4.70;2.50;;;;;;;6.95;71.56;99571.72;102592;278;97800;-60
2023/03/12 07:54:29;;;;;;;5.20;2.40;;;;;;;7.17;71.79;99579.17;102625;278;119457;-63
2023/03/12 07:57:16;;;;;;;5.30;2.20;;;;;;;7.72;69.35;99581.49;102639;278;104033;-62
2023/03/12 07:59:56;;;;;;;5.00;2.20;;;;;;;6.82;68.89;99589.08;102593;278;112852;-58
2023/03/12 08:02:33;;;;;;;5.10;2.40;;;;;;;6.03;69.03;99595.28;102612;278;95036;-58
2023/03/12 08:05:09;;;;;;;4.80;3.10;;;;;;;5.63;69.41;99597.89;102603;278;97729;-62
2023/03/12 08:07:48;;;;;;;3.70;1.80;;;;;;;5.27;69.28;99600.41;102627;278;119430;-61
2023/03/12 08:10:24;;;;;;;5.10;1.70;;;;;;;4.86;68.97;99603.92;102606;278;105067;-60
2023/03/12 08:13:01;;;;;;;6.20;2.30;;;;;;;4.65;69.58;99608.06;102595;278;112953;-56
2023/03/12 08:15:39;;;;;;;3.40;1.90;;;;;;;4.63;69.32;99607.04;102605;278;93370;-57
2023/03/12 08:18:16;;;;;;;4.40;1.80;;;;;;;4.43;69.22;99608.38;102607;278;97425;-59
2023/03/12 08:20:54;;;;;;;3.60;2.00;;;;;;;4.14;68.76;99618.56;102623;278;118762;-59
2023/03/12 08:23:34;;;;;;;4.30;2.10;;;;;;;3.81;68.84;99626.79;102614;278;104914;-55
2023/03/12 08:26:09;;;;;;;3.90;1.80;;;;;;;3.60;69.29;99629.66;102605;278;114931;-54
2023/03/12 08:28:52;;;;;;;4.40;1.80;;;;;;;3.48;68.81;99630.59;102631;278;93658;-58
2023/03/12 08:31:33;;;;;;;4.10;1.60;;;;;;;3.72;69.01;99634.27;102577;278;96741;-58
2023/03/12 08:34:09;;;;;;;2.30;1.50;;;;;;;4.14;69.11;99640.69;102607;278;118395;-56
2023/03/12 08:36:46;;;;;;;3.10;1.40;;;;;;;5.13;69.06;99640.09;102601;277;106592;-56
2023/03/12 08:39:25;;;;;;;3.50;1.70;;;;;;;5.31;69.09;99637.48;102558;278;114533;-59
2023/03/12 08:42:04;;;;;;;4.40;1.90;;;;;;;5.48;68.18;99635.73;102588;278;92947;-59
2023/03/12 08:44:41;;;;;;;4.60;1.40;;;;;;;6.73;68.16;99632.69;102580;278;96008;-56
2023/03/12 08:47:19;;;;;;;3.00;1.60;;;;;;;6.71;66.59;99644.80;102554;278;119984;-57
2023/03/12 08:50:00;;;;;;;5.50;2.00;;;;;;;6.36;66.38;99646.92;102600;278;106717;-62
2023/03/12 08:52:46;;;;;;;4.30;2.10;;;;;;;6.84;66.90;99649.25;102602;278;114522;-63
2023/03/12 08:55:28;;;;;;;4.20;1.70;;;;;;;8.83;65.88;99637.52;102528;278;93655;-55
2023/03/12 08:58:12;;;;;;;3.40;1.20;;;;;;;8.28;63.66;99650.34;102538;278;97832;-56
2023/03/12 09:00:47;;;;;;;3.40;1.40;;;;;;;7.74;62.64;99647.98;102550;278;119840;-56
2023/03/12 09:03:24;;;;;;;5.10;1.50;;;;;;;7.46;62.65;99661.77;102576;278;104487;-62
2023/03/12 09:06:12;;;;;;;3.20;1.40;;;;;;;8.30;62.31;99664.36;102542;278;114752;-57
2023/03/12 09:08:50;;;;;;;3.60;1.40;;;;;;;7.84;60.67;99665.09;102519;278;93480;-56
2023/03/12 09:11:26;;;;;;;4.30;1.70;;;;;;;7.37;60.10;99659.20;102524;278;96817;-58
2023/03/12 09:14:07;;;;;;;4.20;1.30;;;;;;;6.95;60.57;99662.80;102591;277;119779;-60
2023/03/12 09:16:48;;;;;;;4.00;1.50;;;;;;;6.30;60.24;99668.10;102556;278;103819;-62
2023/03/12 09:19:24;;;;;;;5.50;1.80;;;;;;;5.94;60.76;99665.63;102551;278;114776;-62
2023/03/12 09:22:05;;;;;;;3.90;1.50;;;;;;;5.57;59.79;99678.11;102529;278;91574;-57
2023/03/12 09:24:44;;;;;;;5.00;1.50;;;;;;;5.51;61.12;99674.48;102574;278;95445;-60
2023/03/12 09:27:25;;;;;;;3.90;1.50;;;;;;;6.08;61.64;99668.23;102551;278;119323;-60
2023/03/12 09:30:01;;;;;;;6.10;1.80;;;;;;;6.25;60.37;99672.20;102569;279;105062;-57
2023/03/12 09:32:39;;;;;;;3.00;1.50;;;;;;;6.65;60.59;99669.43;102552;278;114610;-57
2023/03/12 09:35:20;;;;;;;3.40;2.00;;;;;;;7.44;59.99;99666.09;102575;278;91164;-56
2023/03/12 09:37:56;;;;;;;2.60;1.40;;;;;;;7.92;59.23;99671.60;102549;278;96786;-61
2023/03/12 09:40:35;;;;;;;4.40;1.60;;;;;;;7.51;57.80;99679.21;102548;278;119398;-62
2023/03/12 09:43:16;;;;;;;3.70;1.70;;;;;;;7.39;57.38;99678.93;102558;278;104509;-57
2023/03/12 09:45:57;;;;;;;4.60;1.70;;;;;;;7.01;57.72;99687.48;102527;278;114758;-55
2023/03/12 09:48:37;;;;;;;3.80;1.50;;;;;;;6.71;57.23;99684.20;102515;290;94834;-57
2023/03/12 09:51:22;;;;;;;4.30;1.70;;;;;;;6.44;57.16;99689.29;102555;277;98058;-56
2023/03/12 09:54:03;;;;;;;4.00;1.50;;;;;;;6.11;57.82;99700.36;102590;278;120617;-60
2023/03/12 09:56:39;;;;;;;3.30;1.50;;;;;;;5.87;57.52;99697.41;102585;277;104461;-60
2023/03/12 09:59:15;;;;;;;4.50;2.00;;;;;;;5.66;56.71;99691.36;102567;277;114658;-58
2023/03/12 10:01:57;;;;;;;5.50;2.20;;;;;;;5.38;57.61;99712.23;102577;278;93266;-56
2023/03/12 10:04:47;;;;;;;3.30;1.60;;;;;;;5.11;57.60;99712.71;102656;277;96213;-59
2023/03/12 10:07:36;;;;;;;4.30;1.80;;;;;;;4.98;58.14;99711.91;102547;277;119654;-56
2023/03/12 10:10:40;;;;;;;6.00;1.60;;;;;;;4.96;57.41;99709.86;102616;277;106039;-57
2023/03/12 10:13:40;;;;;;;2.90;1.80;;;;;;;4.87;57.17;99717.08;102529;278;114845;-53
2023/03/12 10:16:31;;;;;;;4.30;1.70;;;;;;;4.73;57.17;99723.05;102538;277;92007;-56
2023/03/12 10:19:21;;;;;;;7.00;1.70;;;;;;;4.82;57.77;99725.89;102578;278;96973;-60
2023/03/12 10:22:03;;;;;;;5.80;1.50;;;;;;;4.88;57.84;99727.98;102513;278;119518;-59
2023/03/12 10:24:55;;;;;;;6.20;1.70;;;;;;;4.91;58.11;99726.10;102551;278;106374;-58
2023/03/12 10:27:35;;;;;;;5.70;2.00;;;;;;;4.72;58.22;99737.50;102556;277;114465;-58
2023/03/12 10:30:22;;;;;;;3.70;1.60;;;;;;;4.47;57.99;99735.89;102555;278;91296;-61
2023/03/12 10:32:59;;;;;;;3.70;1.40;;;;;;;4.41;57.81;99734.48;102543;266;97510;-61
2023/03/12 10:35:36;;;;;;;4.20;2.10;;;;;;;4.48;58.34;99736.27;102522;277;118927;-61
2023/03/12 10:38:19;;;;;;;3.80;2.10;;;;;;;4.62;58.32;99730.21;102559;277;105468;-61
2023/03/12 10:40:55;;;;;;;5.80;2.00;;;;;;;5.00;58.09;99731.82;102533;277;113465;-62
2023/03/12 10:43:35;;;;;;;3.80;1.60;;;;;;;5.44;58.21;99729.75;102551;278;92802;-61
2023/03/12 10:46:34;;;;;;;5.90;2.40;;;;;;;5.65;58.07;99733.23;102558;278;97610;-61
2023/03/12 10:49:33;;;;;;;5.50;2.20;;;;;;;5.69;58.48;99740.61;102534;278;119077;-56
2023/03/12 10:52:20;;;;;;;4.90;2.10;;;;;;;5.60;57.52;99741.77;102613;266;105059;-57
2023/03/12 10:55:22;;;;;;;5.70;1.90;;;;;;;5.66;58.19;99747.79;102388;278;115913;-59
2023/03/12 10:57:58;;;;;;;5.00;1.80;;;;;;;5.52;57.95;99749.71;102604;278;93027;-60
2023/03/12 11:00:33;;;;;;;;;;;;;;;5.24;57.22;99745.00;102673;278;96824;-61
2023/03/12 11:03:22;;;;;;;4.30;1.70;;;;;;;5.57;58.17;99749.83;102602;278;118112;-57
2023/03/12 11:06:02;;;;;;;4.00;1.40;;;;;;;6.03;57.21;99744.77;102499;278;105674;-56
2023/03/12 11:08:43;;;;;;;3.60;1.50;;;;;;;6.30;57.70;99741.38;102512;279;115923;-61
2023/03/12 11:11:33;;;;;;;3.60;1.60;;;;;;;6.55;56.50;99744.88;102527;278;91785;-62
2023/03/12 11:14:21;;;;;;;3.60;1.60;;;;;;;6.77;56.82;99742.68;102542;278;97969;-61
2023/03/12 11:17:25;;;;;;;3.70;1.80;;;;;;;7.00;56.34;99747.04;102534;278;119315;-61
2023/03/12 11:20:25;;;;;;;3.40;1.50;;;;;;;7.06;55.25;99746.14;102540;279;105910;-54
2023/03/12 11:23:16;;;;;;;3.40;1.50;;;;;;;7.07;55.00;99749.42;102487;279;114875;-61
2023/03/12 11:26:03;;;;;;;4.60;1.80;;;;;;;7.07;54.85;99744.80;102494;279;92155;-61
2023/03/12 11:28:49;;;;;;;3.70;1.90;;;;;;;6.90;52.71;99747.17;102528;278;97890;-56
2023/03/12 11:31:38;;;;;;;4.70;1.70;;;;;;;6.83;53.48;99752.16;102499;279;119526;-57
2023/03/12 11:34:27;;;;;;;5.50;1.70;;;;;;;6.89;53.28;99755.00;102554;279;105242;-61
2023/03/12 11:37:14;;;;;;;4.70;2.20;;;;;;;6.92;53.23;99754.96;102523;278;113961;-60
2023/03/12 11:40:08;;;;;;;5.20;2.30;;;;;;;6.81;53.16;99757.59;102489;279;94126;-59
2023/03/12 11:43:05;;;;;;;4.70;2.30;;;;;;;6.78;53.32;99762.34;102508;279;96566;-62
2023/03/12 11:45:56;;;;;;;2.60;1.30;;;;;;;6.65;52.46;99765.39;102500;278;117868;-57
2023/03/12 11:48:47;;;;;;;4.80;2.00;;;;;;;6.45;52.46;99757.98;102550;279;105834;-63
2023/03/12 11:51:40;;;;;;;4.50;1.50;;;;;;;6.32;51.74;99757.81;102521;279;114423;-61
2023/03/12 11:54:48;;;;;;;5.00;1.80;;;;;;;6.37;52.21;99761.38;102565;279;93178;-56
2023/03/12 11:57:39;;;;;;;6.60;2.00;;;;;;;6.40;51.87;99763.16;102504;279;96392;-60
2023/03/12 12:00:27;;;;;;;3.70;1.50;;;;;;;6.58;51.79;99753.01;102542;279;118910;-61
2023/03/12 12:03:44;;;;;;;3.20;1.40;;;;;;;6.83;51.80;99754.67;102502;278;105670;-60
2023/03/12 12:06:30;;;;;;;3.10;1.40;;;;;;;7.07;51.65;99756.37;102522;279;113333;-61
2023/03/12 12:09:26;;;;;;;2.80;1.10;;;;;;;7.11;51.28;99767.55;102512;279;91398;-57
2023/03/12 12:12:16;;;;;;;5.60;1.90;;;;;;;7.18;49.99;99764.95;102546;279;97050;-57
2023/03/12 12:15:13;;;;;;;5.00;1.60;;;;;;;7.18;49.84;99767.77;102574;278;119239;-61
2023/03/12 12:18:03;;;;;;;3.70;1.70;;;;;;;7.12;50.20;99765.95;102519;278;103331;-61
2023/03/12 12:20:58;;;;;;;5.50;2.10;;;;;;;6.86;49.02;99764.65;102484;279;114005;-61
2023/03/12 12:23:47;;;;;;;3.40;1.90;;;;;;;6.81;50.00;99766.63;102529;278;90989;-58
2023/03/12 12:26:30;;;;;;;3.50;1.40;;;;;;;6.95;50.69;99769.52;102521;279;97922;-58
2023/03/12 12:29:30;;;;;;;2.90;1.40;;;;;;;7.04;50.90;99769.45;102506;278;119541;-58
2023/03/12 12:32:14;;;;;;;4.50;1.50;;;;;;;6.96;50.54;99771.98;102521;279;103743;-54
2023/03/12 12:35:21;;;;;;;1.80;1.00;;;;;;;6.92;50.28;99774.63;102552;278;113165;-58
2023/03/12 12:38:03;;;;;;;2.80;1.30;;;;;;;6.74;50.44;99780.72;102524;279;92746;-61